Time;durP1;ratioP1;P1;durP2;ratioP2;P2;SDS_P1;SDS_P2;PMS_P1;PMS_P2;Temp;Humidity;BMP_temperature;BMP_pressure;BME280_temperature;BME280_humidity;BME280_pressure;Samples;Min_cycle;Max_cycle;Signal;HPM_P1;HPM_P2
2022/04/09 00:00:50;;;;;;;8.33;5.27;;;;;;;;;;5011568;28;20037;-75
2022/04/09 00:03:16;;;;;;;8.97;5.97;;;;;;;;;;5011215;28;20021;-75
2022/04/09 00:05:41;;;;;;;11.87;6.43;;;;;;;;;;4994948;28;20026;-74
2022/04/09 00:08:07;;;;;;;7.13;5.10;;;;;;;;;;5012499;28;20037;-75
2022/04/09 00:10:33;;;;;;;9.10;5.80;;;;;;;;;;5011572;28;20397;-74
2022/04/09 00:12:58;;;;;;;11.63;6.40;;;;;;;;;;5011326;28;20057;-74
2022/04/09 00:15:24;;;;;;;11.90;7.17;;;;;;;;;;5011347;28;20393;-74
2022/04/09 00:17:50;;;;;;;13.47;7.93;;;;;;;;;;5011435;28;20030;-75
2022/04/09 00:20:17;;;;;;;12.87;7.37;;;;;;;;;;5027709;28;20129;-75
2022/04/09 00:22:44;;;;;;;11.73;6.80;;;;;;;;;;5012821;28;20022;-75
2022/04/09 00:25:12;;;;;;;14.27;8.23;;;;;;;;;;5011117;28;20036;-75
2022/04/09 00:27:38;;;;;;;14.27;7.07;;;;;;;;;;4995073;28;20486;-74
2022/04/09 00:30:05;;;;;;;11.97;6.33;;;;;;;;;;5011031;28;20037;-75
2022/04/09 00:32:31;;;;;;;11.87;6.20;;;;;;;;;;5010901;28;20028;-74
2022/04/09 00:34:57;;;;;;;10.73;6.90;;;;;;;;;;5011322;28;20465;-74
2022/04/09 00:37:22;;;;;;;13.90;6.97;;;;;;;;;;5012129;28;20465;-75
2022/04/09 00:39:48;;;;;;;8.57;5.80;;;;;;;;;;5011052;28;20026;-74
2022/04/09 00:42:16;;;;;;;9.57;5.17;;;;;;;;;;5010616;28;20441;-74
2022/04/09 00:44:42;;;;;;;6.50;4.20;;;;;;;;;;5010933;28;20452;-74
2022/04/09 00:47:09;;;;;;;7.87;4.47;;;;;;;;;;5011303;28;20482;-74
2022/04/09 00:49:37;;;;;;;8.60;4.87;;;;;;;;;;5027869;28;20041;-74
2022/04/09 00:52:05;;;;;;;6.93;4.37;;;;;;;;;;5014653;28;20061;-74
2022/04/09 00:54:36;;;;;;;6.93;4.40;;;;;;;;;;5020486;28;20448;-74
2022/04/09 00:57:05;;;;;;;5.23;3.47;;;;;;;;;;5006141;28;20053;-73
2022/04/09 00:59:33;;;;;;;6.57;3.17;;;;;;;;;;5035207;28;20053;-73
2022/04/09 01:01:59;;;;;;;6.23;3.53;;;;;;;;;;5011921;28;20120;-74
2022/04/09 01:04:25;;;;;;;5.97;3.10;;;;;;;;;;5010926;28;20118;-73
2022/04/09 01:06:51;;;;;;;3.57;2.40;;;;;;;;;;5010436;28;20057;-73
2022/04/09 01:09:17;;;;;;;5.90;3.23;;;;;;;;;;5010224;28;20049;-75
2022/04/09 01:11:43;;;;;;;4.37;2.80;;;;;;;;;;5010375;28;20057;-75
2022/04/09 01:14:12;;;;;;;4.17;2.87;;;;;;;;;;5010175;28;20030;-74
2022/04/09 01:16:37;;;;;;;3.50;2.30;;;;;;;;;;5010303;28;20079;-74
2022/04/09 01:19:03;;;;;;;4.30;2.27;;;;;;;;;;5010238;28;20124;-74
2022/04/09 01:21:29;;;;;;;2.90;2.03;;;;;;;;;;5011040;28;20054;-74
2022/04/09 01:23:55;;;;;;;2.43;1.83;;;;;;;;;;5009966;28;20022;-74
2022/04/09 01:26:22;;;;;;;2.90;2.27;;;;;;;;;;5009846;28;20389;-74
2022/04/09 01:28:48;;;;;;;3.00;2.00;;;;;;;;;;5009817;28;20033;-75
2022/04/09 01:31:15;;;;;;;3.03;1.50;;;;;;;;;;5009521;28;20036;-75
2022/04/09 01:33:41;;;;;;;3.97;2.20;;;;;;;;;;5026720;28;20467;-74
2022/04/09 01:36:07;;;;;;;3.67;1.83;;;;;;;;;;5009972;28;20035;-74
2022/04/09 01:38:34;;;;;;;2.67;2.27;;;;;;;;;;5010103;28;20054;-75
2022/04/09 01:41:00;;;;;;;3.73;2.30;;;;;;;;;;5011173;28;20076;-74
2022/04/09 01:43:26;;;;;;;2.77;2.03;;;;;;;;;;5009629;28;20585;-74
2022/04/09 01:45:52;;;;;;;1.90;1.80;;;;;;;;;;5009544;28;20112;-74
2022/04/09 01:48:19;;;;;;;4.23;2.40;;;;;;;;;;5009320;28;20061;-75
2022/04/09 01:50:45;;;;;;;4.17;2.30;;;;;;;;;;5009686;28;20050;-73
2022/04/09 01:53:11;;;;;;;2.57;2.10;;;;;;;;;;5009261;28;20470;-73
2022/04/09 01:55:37;;;;;;;3.20;2.40;;;;;;;;;;5010985;28;20025;-73
2022/04/09 01:58:03;;;;;;;4.67;2.57;;;;;;;;;;5009728;28;20022;-74
2022/04/09 02:00:30;;;;;;;3.50;2.40;;;;;;;;;;5009292;28;20033;-74
2022/04/09 02:02:55;;;;;;;2.80;2.50;;;;;;;;;;4992753;28;20029;-73
2022/04/09 02:05:21;;;;;;;3.03;2.73;;;;;;;;;;5008927;28;20099;-73
2022/04/09 02:07:49;;;;;;;3.43;2.70;;;;;;;;;;5009311;28;20529;-74
2022/04/09 02:10:16;;;;;;;4.97;2.87;;;;;;;;;;5009339;28;20442;-73
2022/04/09 02:12:43;;;;;;;4.23;3.30;;;;;;;;;;5010046;28;20065;-73
2022/04/09 02:15:10;;;;;;;3.10;2.77;;;;;;;;;;5010710;28;20042;-73
2022/04/09 02:17:38;;;;;;;4.50;3.30;;;;;;;;;;5009824;28;20022;-72
2022/04/09 02:20:05;;;;;;;5.07;3.60;;;;;;;;;;5009960;28;20498;-73
2022/04/09 02:22:38;;;;;;;6.70;4.10;;;;;;;;;;5011456;28;20033;-74
2022/04/09 02:25:05;;;;;;;4.77;3.73;;;;;;;;;;5011390;28;20391;-73
2022/04/09 02:27:30;;;;;;;5.07;4.40;;;;;;;;;;5008848;28;20030;-74
2022/04/09 02:29:57;;;;;;;6.90;4.30;;;;;;;;;;5008896;28;20021;-73
2022/04/09 02:32:24;;;;;;;8.20;4.17;;;;;;;;;;5008717;28;20281;-74
2022/04/09 02:34:52;;;;;;;4.67;3.73;;;;;;;;;;5010243;28;20037;-74
2022/04/09 02:37:18;;;;;;;4.73;3.77;;;;;;;;;;5008789;28;20268;-74
2022/04/09 02:39:43;;;;;;;5.23;3.50;;;;;;;;;;5008899;28;20025;-74
2022/04/09 02:42:09;;;;;;;7.23;3.83;;;;;;;;;;5009135;28;20034;-75
2022/04/09 02:44:34;;;;;;;4.30;3.33;;;;;;;;;;5008805;28;20038;-74
2022/04/09 02:47:00;;;;;;;5.53;3.40;;;;;;;;;;5008597;28;20544;-75
2022/04/09 02:49:26;;;;;;;4.40;2.93;;;;;;;;;;5008515;28;20030;-74
2022/04/09 02:51:51;;;;;;;3.63;3.07;;;;;;;;;;5008703;28;20026;-74
2022/04/09 02:54:17;;;;;;;5.00;3.63;;;;;;;;;;5008239;28;20460;-74
2022/04/09 02:56:43;;;;;;;6.13;3.17;;;;;;;;;;5010728;28;20432;-74
2022/04/09 02:59:13;;;;;;;4.17;3.27;;;;;;;;;;5008514;28;20025;-74
2022/04/09 03:01:43;;;;;;;3.83;3.03;;;;;;;;;;5008327;28;20088;-74
2022/04/09 03:04:10;;;;;;;3.83;2.93;;;;;;;;;;5008590;28;20087;-74
2022/04/09 03:06:35;;;;;;;3.60;2.87;;;;;;;;;;5008221;28;20056;-73
2022/04/09 03:09:01;;;;;;;3.87;2.70;;;;;;;;;;5008669;28;20481;-73
2022/04/09 03:11:26;;;;;;;4.13;3.03;;;;;;;;;;5008359;28;20470;-73
2022/04/09 03:13:52;;;;;;;3.97;3.10;;;;;;;;;;5008478;28;20036;-73
2022/04/09 03:16:17;;;;;;;5.90;3.50;;;;;;;;;;5008617;28;20057;-73
2022/04/09 03:18:43;;;;;;;3.70;3.30;;;;;;;;;;5012414;28;20064;-73
2022/04/09 03:21:09;;;;;;;5.30;3.30;;;;;;;;;;5012210;28;20502;-74
2022/04/09 03:23:35;;;;;;;4.30;3.33;;;;;;;;;;5012017;28;20045;-73
2022/04/09 03:26:01;;;;;;;6.37;3.70;;;;;;;;;;5012215;28;20026;-73
2022/04/09 03:28:26;;;;;;;7.00;4.23;;;;;;;;;;5011832;28;20083;-73
2022/04/09 03:30:52;;;;;;;5.87;4.60;;;;;;;;;;5012131;28;20056;-72
2022/04/09 03:33:18;;;;;;;4.77;4.03;;;;;;;;;;5012043;28;20030;-76
2022/04/09 03:35:43;;;;;;;5.57;4.33;;;;;;;;;;5013457;28;20481;-73
2022/04/09 03:38:12;;;;;;;7.10;5.70;;;;;;;;;;5012228;28;20149;-73
2022/04/09 03:40:38;;;;;;;9.17;5.70;;;;;;;;;;5013422;28;20188;-74
2022/04/09 03:43:05;;;;;;;13.17;5.63;;;;;;;;;;5013690;28;20387;-73
2022/04/09 03:45:31;;;;;;;7.27;5.33;;;;;;;;;;5011811;28;20030;-73
2022/04/09 03:47:57;;;;;;;8.87;6.60;;;;;;;;;;5012885;28;20049;-75
2022/04/09 03:50:22;;;;;;;7.70;5.53;;;;;;;;;;5012850;28;20030;-73
2022/04/09 03:52:49;;;;;;;7.47;5.33;;;;;;;;;;5011528;28;20065;-75
2022/04/09 03:55:15;;;;;;;7.13;5.57;;;;;;;;;;5013085;28;20095;-73
2022/04/09 03:57:41;;;;;;;11.13;6.17;;;;;;;;;;5011644;28;20470;-73
2022/04/09 04:00:08;;;;;;;8.97;5.77;;;;;;;;;;5028064;28;20044;-75
2022/04/09 04:02:34;;;;;;;8.60;5.80;;;;;;;;;;5011431;28;20036;-74
2022/04/09 04:05:02;;;;;;;8.93;6.07;;;;;;;;;;4995125;28;20470;-73
2022/04/09 04:07:32;;;;;;;8.97;5.43;;;;;;;;;;5011530;28;20030;-74
2022/04/09 04:10:03;;;;;;;7.03;4.93;;;;;;;;;;4995281;28;20029;-74
2022/04/09 04:12:29;;;;;;;8.70;5.70;;;;;;;;;;5011667;28;20497;-73
2022/04/09 04:14:54;;;;;;;9.90;5.93;;;;;;;;;;5011288;28;20065;-73
2022/04/09 04:17:20;;;;;;;7.47;4.80;;;;;;;;;;5012743;28;20029;-74
2022/04/09 04:19:45;;;;;;;7.03;4.50;;;;;;;;;;5011023;28;20493;-77
2022/04/09 04:22:11;;;;;;;9.23;5.00;;;;;;;;;;5027885;28;20104;-74
2022/04/09 04:24:37;;;;;;;6.57;4.40;;;;;;;;;;5012534;28;20038;-74
2022/04/09 04:27:05;;;;;;;8.07;4.80;;;;;;;;;;5011065;28;20141;-74
2022/04/09 04:29:31;;;;;;;7.47;4.33;;;;;;;;;;5011295;28;20024;-76
2022/04/09 04:31:58;;;;;;;7.37;3.80;;;;;;;;;;5010982;28;20493;-74
2022/04/09 04:34:23;;;;;;;5.77;4.20;;;;;;;;;;5010796;28;20117;-75
2022/04/09 04:36:49;;;;;;;6.87;4.47;;;;;;;;;;5010867;28;20125;-74
2022/04/09 04:39:15;;;;;;;9.90;4.47;;;;;;;;;;5010806;28;20065;-74
2022/04/09 04:41:40;;;;;;;7.70;4.60;;;;;;;;;;5012057;28;20030;-73
2022/04/09 04:44:06;;;;;;;7.63;5.03;;;;;;;;;;5011014;28;20034;-74
2022/04/09 04:46:34;;;;;;;11.00;5.63;;;;;;;;;;5011784;28;20116;-74
2022/04/09 04:49:00;;;;;;;4.80;3.70;;;;;;;;;;5010638;28;20030;-75
2022/04/09 04:51:25;;;;;;;7.13;4.27;;;;;;;;;;5010537;28;20034;-74
2022/04/09 04:53:51;;;;;;;6.20;3.80;;;;;;;;;;5010563;28;20492;-73
2022/04/09 04:56:17;;;;;;;6.67;4.03;;;;;;;;;;5010682;28;20034;-74
2022/04/09 04:58:42;;;;;;;6.73;4.27;;;;;;;;;;5010898;28;20033;-74
2022/04/09 05:01:08;;;;;;;8.00;4.57;;;;;;;;;;5011700;28;20052;-73
2022/04/09 05:03:37;;;;;;;6.77;4.67;;;;;;;;;;5010290;28;20022;-74
2022/04/09 05:06:03;;;;;;;6.00;4.07;;;;;;;;;;5026874;28;20033;-74
2022/04/09 05:08:30;;;;;;;6.43;4.33;;;;;;;;;;5010131;28;20377;-72
2022/04/09 05:10:56;;;;;;;7.13;4.73;;;;;;;;;;5010470;28;20030;-73
2022/04/09 05:13:24;;;;;;;5.17;3.70;;;;;;;;;;5011816;28;20528;-73
2022/04/09 05:15:50;;;;;;;6.87;3.93;;;;;;;;;;5010523;28;20466;-74
2022/04/09 05:18:16;;;;;;;6.63;4.07;;;;;;;;;;5010514;28;20026;-73
2022/04/09 05:20:43;;;;;;;6.13;3.97;;;;;;;;;;5009925;28;20070;-74
2022/04/09 05:23:08;;;;;;;4.87;3.83;;;;;;;;;;5026449;28;20030;-73
2022/04/09 05:25:34;;;;;;;6.13;4.50;;;;;;;;;;5026381;28;20032;-73
2022/04/09 05:28:05;;;;;;;7.83;4.73;;;;;;;;;;5011148;28;20032;-74
2022/04/09 05:30:32;;;;;;;9.07;5.20;;;;;;;;;;5026577;28;20429;-74
2022/04/09 05:32:57;;;;;;;8.43;5.23;;;;;;;;;;5026638;28;20029;-73
2022/04/09 05:35:23;;;;;;;8.77;5.57;;;;;;;;;;5011593;28;20040;-74
2022/04/09 05:37:51;;;;;;;10.03;5.83;;;;;;;;;;5026610;28;20057;-74
2022/04/09 05:40:18;;;;;;;11.43;6.10;;;;;;;;;;5025596;28;20057;-74
2022/04/09 05:42:44;;;;;;;12.37;6.03;;;;;;;;;;5009935;28;20124;-74
2022/04/09 05:45:13;;;;;;;8.73;5.80;;;;;;;;;;5026185;28;20137;-74
2022/04/09 05:47:43;;;;;;;8.90;6.53;;;;;;;;;;5026490;28;20030;-73
2022/04/09 05:50:09;;;;;;;8.70;6.03;;;;;;;;;;5010173;28;20041;-75
2022/04/09 05:52:36;;;;;;;13.90;6.33;;;;;;;;;;5026454;28;20029;-75
2022/04/09 05:55:03;;;;;;;11.23;6.70;;;;;;;;;;5027508;28;20117;-76
2022/04/09 05:57:35;;;;;;;9.37;5.60;;;;;;;;;;5026819;28;20267;-75
2022/04/09 06:00:01;;;;;;;10.65;5.82;;;;;;;;;;5017410;28;20372;-74
2022/04/09 06:02:27;;;;;;;8.67;5.17;;;;;;;;;;5028685;28;20041;-74
2022/04/09 06:04:53;;;;;;;8.37;4.70;;;;;;;;;;5046352;28;20029;-76
2022/04/09 06:07:20;;;;;;;9.83;5.87;;;;;;;;;;5044347;28;20675;-75
2022/04/09 06:09:47;;;;;;;7.50;4.73;;;;;;;;;;5031060;28;20477;-74
2022/04/09 06:12:12;;;;;;;7.50;4.97;;;;;;;;;;5027662;28;20029;-75
2022/04/09 06:14:39;;;;;;;9.63;4.90;;;;;;;;;;5027662;28;20030;-76
2022/04/09 06:17:06;;;;;;;10.57;5.43;;;;;;;;;;5027245;28;20021;-76
2022/04/09 06:19:34;;;;;;;8.77;4.90;;;;;;;;;;5010618;28;20076;-75
2022/04/09 06:22:01;;;;;;;7.90;5.00;;;;;;;;;;5010340;28;20049;-76
2022/04/09 06:24:27;;;;;;;10.23;5.23;;;;;;;;;;5009199;28;20045;-75
2022/04/09 06:26:52;;;;;;;10.20;5.40;;;;;;;;;;5009373;28;20030;-76
2022/04/09 06:29:18;;;;;;;8.73;5.40;;;;;;;;;;5026052;28;20445;-75
2022/04/09 06:31:47;;;;;;;8.20;5.70;;;;;;;;;;5009703;28;20037;-76
2022/04/09 06:34:15;;;;;;;9.27;5.83;;;;;;;;;;5010712;28;20037;-75
2022/04/09 06:36:42;;;;;;;10.67;5.20;;;;;;;;;;4992724;28;20057;-75
2022/04/09 06:39:07;;;;;;;10.17;5.60;;;;;;;;;;5010471;28;20301;-75
2022/04/09 06:41:33;;;;;;;13.60;6.23;;;;;;;;;;5009651;28;20022;-76
2022/04/09 06:43:59;;;;;;;12.57;5.73;;;;;;;;;;5010955;28;20025;-76
2022/04/09 06:46:25;;;;;;;7.97;5.63;;;;;;;;;;5008785;28;20022;-74
2022/04/09 06:48:51;;;;;;;10.40;6.50;;;;;;;;;;5008204;28;20393;-75
2022/04/09 06:51:17;;;;;;;12.30;6.17;;;;;;;;;;5010161;28;20046;-75
2022/04/09 06:53:42;;;;;;;9.47;6.17;;;;;;;;;;5008372;28;20033;-74
2022/04/09 06:56:08;;;;;;;12.00;6.47;;;;;;;;;;5008916;28;20033;-75
2022/04/09 06:58:34;;;;;;;10.67;6.47;;;;;;;;;;5008503;28;20030;-78
2022/04/09 07:01:01;;;;;;;12.07;6.07;;;;;;;;;;5010146;28;20041;-76
2022/04/09 07:03:28;;;;;;;12.20;6.30;;;;;;;;;;5010146;28;20109;-76
2022/04/09 07:05:53;;;;;;;14.37;7.57;;;;;;;;;;5008624;28;20156;-76
2022/04/09 07:08:19;;;;;;;13.03;7.27;;;;;;;;;;5008185;28;20061;-77
2022/04/09 07:10:45;;;;;;;10.80;5.90;;;;;;;;;;5008444;28;20062;-77
2022/04/09 07:13:12;;;;;;;14.00;7.77;;;;;;;;;;5025032;28;20062;-76
2022/04/09 07:15:38;;;;;;;14.63;7.60;;;;;;;;;;5008465;28;20057;-76
2022/04/09 07:18:04;;;;;;;14.03;7.67;;;;;;;;;;5008433;28;20045;-76
2022/04/09 07:20:30;;;;;;;11.03;6.97;;;;;;;;;;4991879;28;20057;-76
2022/04/09 07:22:56;;;;;;;12.33;7.37;;;;;;;;;;5024862;28;20087;-77
2022/04/09 07:25:22;;;;;;;14.57;7.77;;;;;;;;;;5024778;28;20036;-74
2022/04/09 07:27:49;;;;;;;14.33;7.33;;;;;;;;;;5024524;28;20026;-76
2022/04/09 07:30:17;;;;;;;9.87;6.63;;;;;;;;;;5024789;28;20033;-76
2022/04/09 07:32:43;;;;;;;13.17;7.13;;;;;;;;;;5009414;28;20053;-74
2022/04/09 07:35:11;;;;;;;10.73;6.33;;;;;;;;;;5008338;28;20068;-76
2022/04/09 07:37:41;;;;;;;11.67;6.63;;;;;;;;;;5008155;28;20030;-76
2022/04/09 07:40:11;;;;;;;9.07;6.63;;;;;;;;;;5008781;28;20100;-77
2022/04/09 07:42:38;;;;;;;9.60;5.77;;;;;;;;;;5024912;28;20251;-75
2022/04/09 07:45:05;;;;;;;12.53;6.70;;;;;;;;;;5025372;28;20030;-75
2022/04/09 07:47:31;;;;;;;11.70;7.23;;;;;;;;;;5024394;28;20030;-77
2022/04/09 07:49:57;;;;;;;11.13;6.60;;;;;;;;;;5008087;28;20702;-77
2022/04/09 07:52:22;;;;;;;10.33;6.87;;;;;;;;;;5024694;28;20034;-75
2022/04/09 07:54:48;;;;;;;9.57;7.00;;;;;;;;;;5009697;28;20033;-77
2022/04/09 07:57:14;;;;;;;10.13;7.13;;;;;;;;;;5008026;28;20313;-76
2022/04/09 07:59:39;;;;;;;21.37;7.77;;;;;;;;;;5024662;28;20544;-75
2022/04/09 08:02:05;;;;;;;10.03;6.20;;;;;;;;;;5025071;28;20026;-76
2022/04/09 08:04:32;;;;;;;13.70;6.57;;;;;;;;;;5012129;28;20040;-76
2022/04/09 08:06:58;;;;;;;9.67;6.30;;;;;;;;;;5013515;28;20029;-78
2022/04/09 08:09:23;;;;;;;9.57;6.97;;;;;;;;;;5013399;28;20497;-76
2022/04/09 08:11:49;;;;;;;10.17;6.77;;;;;;;;;;5027719;28;20512;-78
2022/04/09 08:14:14;;;;;;;14.37;6.00;;;;;;;;;;5011464;28;20554;-76
2022/04/09 08:16:41;;;;;;;9.80;5.37;;;;;;;;;;5028526;28;20022;-77
2022/04/09 08:19:08;;;;;;;9.23;4.97;;;;;;;;;;5013010;28;20042;-77
2022/04/09 08:21:34;;;;;;;12.73;6.40;;;;;;;;;;5018504;28;20110;-76
2022/04/09 08:24:00;;;;;;;8.07;4.63;;;;;;;;;;4994966;28;20044;-77
2022/04/09 08:26:26;;;;;;;7.57;4.97;;;;;;;;;;5012523;28;20025;-76
2022/04/09 08:28:51;;;;;;;6.77;4.60;;;;;;;;;;5011435;28;20088;-76
2022/04/09 08:31:17;;;;;;;8.33;4.27;;;;;;;;;;5011520;28;20541;-77
2022/04/09 08:33:43;;;;;;;8.67;5.43;;;;;;;;;;5011709;28;20025;-76
2022/04/09 08:36:10;;;;;;;8.50;4.27;;;;;;;;;;5012272;28;20075;-76
2022/04/09 08:38:35;;;;;;;4.67;3.57;;;;;;;;;;5012984;28;20026;-75
2022/04/09 08:41:04;;;;;;;7.23;4.30;;;;;;;;;;5011668;28;20034;-76
2022/04/09 08:43:33;;;;;;;7.83;4.03;;;;;;;;;;5012440;28;20436;-76
2022/04/09 08:46:02;;;;;;;5.77;2.60;;;;;;;;;;5012032;28;20022;-76
2022/04/09 08:48:28;;;;;;;5.60;3.00;;;;;;;;;;5010361;28;20252;-77
2022/04/09 08:50:54;;;;;;;4.07;2.30;;;;;;;;;;5010373;28;20047;-74
2022/04/09 08:53:20;;;;;;;6.60;5.10;;;;;;;;;;5010590;28;20037;-76
2022/04/09 08:55:47;;;;;;;6.10;2.90;;;;;;;;;;5010533;28;20163;-77
2022/04/09 08:58:12;;;;;;;3.83;2.03;;;;;;;;;;5011549;28;20018;-77
2022/04/09 09:00:39;;;;;;;4.17;2.20;;;;;;;;;;5010097;28;20703;-76
2022/04/09 09:03:10;;;;;;;5.00;1.77;;;;;;;;;;5026635;28;20026;-77
2022/04/09 09:05:52;;;;;;;4.10;1.93;;;;;;;;;;5010356;28;20025;-77
2022/04/09 09:08:34;;;;;;;;;;;;;;;;;;5012064;28;20326;-75
2022/04/09 09:11:00;;;;;;;4.80;2.00;;;;;;;;;;5011450;28;19956;-77
2022/04/09 09:13:25;;;;;;;3.50;2.10;;;;;;;;;;5009561;28;20057;-77
2022/04/09 09:15:55;;;;;;;4.43;1.77;;;;;;;;;;5009575;28;20030;-76
2022/04/09 09:18:28;;;;;;;4.07;1.60;;;;;;;;;;5010119;28;20022;-76
2022/04/09 09:20:56;;;;;;;5.83;1.90;;;;;;;;;;5011006;28;20111;-76
2022/04/09 09:23:26;;;;;;;4.20;1.67;;;;;;;;;;5009563;28;20542;-76
2022/04/09 09:25:57;;;;;;;2.60;1.47;;;;;;;;;;5009897;28;20137;-75
2022/04/09 09:28:24;;;;;;;2.87;1.50;;;;;;;;;;5010214;28;20022;-75
2022/04/09 09:30:50;;;;;;;3.27;1.30;;;;;;;;;;5009612;28;20068;-74
2022/04/09 09:33:15;;;;;;;5.77;2.30;;;;;;;;;;4993438;28;20467;-75
2022/04/09 09:35:59;;;;;;;6.07;1.67;;;;;;;;;;5009732;28;20045;-76
2022/04/09 09:38:27;;;;;;;5.30;1.33;;;;;;;;;;5009601;28;20014;-76
2022/04/09 09:40:53;;;;;;;3.33;1.73;;;;;;;;;;5009485;28;20116;-75
2022/04/09 09:43:20;;;;;;;2.63;1.43;;;;;;;;;;5009629;28;20109;-76
2022/04/09 09:45:48;;;;;;;7.00;1.73;;;;;;;;;;5009401;28;20026;-75
2022/04/09 09:48:29;;;;;;;5.63;1.53;;;;;;;;;;5009038;28;20541;-76
2022/04/09 09:50:57;;;;;;;3.53;1.55;;;;;;;;;;5011198;28;20069;-76
2022/04/09 09:53:36;;;;;;;5.70;1.43;;;;;;;;;;5009414;28;20034;-76
2022/04/09 09:56:03;;;;;;;3.30;1.27;;;;;;;;;;5010021;28;20032;-75
2022/04/09 09:58:30;;;;;;;3.57;1.30;;;;;;;;;;5010983;28;20018;-76
2022/04/09 10:00:57;;;;;;;3.67;1.50;;;;;;;;;;5009578;28;20037;-75
2022/04/09 10:03:23;;;;;;;3.67;2.90;;;;;;;;;;5010722;28;20029;-77
2022/04/09 10:05:50;;;;;;;4.33;1.43;;;;;;;;;;5010583;28;20036;-76
2022/04/09 10:08:17;;;;;;;2.37;1.30;;;;;;;;;;5009165;28;20037;-75
2022/04/09 10:10:48;;;;;;;5.27;1.60;;;;;;;;;;5009192;28;20465;-76
2022/04/09 10:13:18;;;;;;;2.50;1.17;;;;;;;;;;5009315;28;20026;-77
2022/04/09 10:15:47;;;;;;;3.83;1.37;;;;;;;;;;5009239;28;20022;-76
2022/04/09 10:18:13;;;;;;;3.17;1.30;;;;;;;;;;4992842;28;20314;-76
2022/04/09 10:20:39;;;;;;;3.43;1.17;;;;;;;;;;5010012;28;20050;-75
2022/04/09 10:23:09;;;;;;;4.53;1.50;;;;;;;;;;5024911;28;20196;-77
2022/04/09 10:25:39;;;;;;;3.10;1.60;;;;;;;;;;5010081;28;20041;-77
2022/04/09 10:28:06;;;;;;;2.90;1.57;;;;;;;;;;5008858;28;20056;-77
2022/04/09 10:30:41;;;;;;;3.80;1.10;;;;;;;;;;5008660;28;20139;-76
2022/04/09 10:33:24;;;;;;;3.63;3.23;;;;;;;;;;4991941;28;20121;-76
2022/04/09 10:35:50;;;;;;;1.63;1.50;;;;;;;;;;5009457;28;20029;-76
2022/04/09 10:38:23;;;;;;;3.00;1.40;;;;;;;;;;5010353;28;20505;-76
2022/04/09 10:40:49;;;;;;;4.03;1.47;;;;;;;;;;5008572;28;20108;-76
2022/04/09 10:43:25;;;;;;;3.27;1.70;;;;;;;;;;5008876;28;20120;-76
2022/04/09 10:46:06;;;;;;;7.53;2.73;;;;;;;;;;5008682;28;20068;-76
2022/04/09 10:48:44;;;;;;;5.53;2.73;;;;;;;;;;5008435;28;20026;-76
2022/04/09 10:51:13;;;;;;;4.27;2.37;;;;;;;;;;5008645;28;20267;-77
2022/04/09 10:53:45;;;;;;;4.77;2.47;;;;;;;;;;5008527;28;20467;-76
2022/04/09 10:56:47;;;;;;;2.40;2.03;;;;;;;;;;5008659;28;20029;-76
2022/04/09 10:59:16;;;;;;;2.90;2.23;;;;;;;;;;5007682;28;20113;-77
2022/04/09 11:01:48;;;;;;;6.50;1.70;;;;;;;;;;5009701;28;20050;-76
2022/04/09 11:07:02;;;;;;;3.50;1.97;;;;;;;;;;5010327;28;20038;-77
2022/04/09 11:09:56;;;;;;;3.40;1.97;;;;;;;;;;5025918;28;20025;-76
2022/04/09 11:12:40;;;;;;;5.10;2.20;;;;;;;;;;5029842;28;20022;-75
2022/04/09 11:15:11;;;;;;;4.53;1.60;;;;;;;;;;5029829;28;20052;-78
2022/04/09 11:17:45;;;;;;;2.27;1.57;;;;;;;;;;5013880;28;20018;-75
2022/04/09 11:20:18;;;;;;;3.13;1.20;;;;;;;;;;5010804;28;20553;-75
2022/04/09 11:22:48;;;;;;;2.57;1.50;;;;;;;;;;5010928;28;20025;-77
2022/04/09 11:25:21;;;;;;;4.00;1.80;;;;;;;;;;5010962;28;20033;-76
2022/04/09 11:27:47;;;;;;;3.40;1.43;;;;;;;;;;5025141;28;20030;-76
2022/04/09 11:30:13;;;;;;;5.97;1.70;;;;;;;;;;5008758;28;20026;-76
2022/04/09 11:32:39;;;;;;;3.50;1.60;;;;;;;;;;5008386;28;20026;-76
2022/04/09 11:35:13;;;;;;;1.50;1.40;;;;;;;;;;5009869;28;20041;-77
2022/04/09 11:37:41;;;;;;;4.03;1.30;;;;;;;;;;5010899;28;20101;-75
2022/04/09 11:40:07;;;;;;;4.23;1.20;;;;;;;;;;5012015;28;20030;-77
2022/04/09 11:43:02;;;;;;;3.40;1.20;;;;;;;;;;5013926;28;20029;-77
2022/04/09 11:45:31;;;;;;;2.57;1.07;;;;;;;;;;5015631;28;20120;-76
2022/04/09 11:48:01;;;;;;;1.30;1.20;;;;;;;;;;5013359;28;20041;-77
2022/04/09 11:50:33;;;;;;;3.40;1.10;;;;;;;;;;5013731;28;20030;-76
2022/04/09 11:53:09;;;;;;;3.23;1.30;;;;;;;;;;5011904;28;20030;-76
2022/04/09 11:55:35;;;;;;;2.70;1.33;;;;;;;;;;5012064;28;20028;-76
2022/04/09 11:58:01;;;;;;;1.37;1.07;;;;;;;;;;5011916;28;20389;-76
2022/04/09 12:00:27;;;;;;;3.33;1.03;;;;;;;;;;5011966;28;20102;-76
2022/04/09 12:02:53;;;;;;;2.30;1.10;;;;;;;;;;5012004;28;20084;-76
2022/04/09 12:05:20;;;;;;;2.80;1.53;;;;;;;;;;5013178;28;20029;-77
2022/04/09 12:07:47;;;;;;;1.70;1.10;;;;;;;;;;4995323;28;20037;-78
2022/04/09 12:10:23;;;;;;;2.20;1.30;;;;;;;;;;5011661;28;20113;-76
2022/04/09 12:13:03;;;;;;;5.63;2.93;;;;;;;;;;5011645;28;20061;-76
2022/04/09 12:15:32;;;;;;;2.17;1.00;;;;;;;;;;5011798;28;20041;-78
2022/04/09 12:17:59;;;;;;;2.33;1.30;;;;;;;;;;5011048;28;20028;-76
2022/04/09 12:20:31;;;;;;;2.90;1.20;;;;;;;;;;4994905;28;20128;-77
2022/04/09 12:22:58;;;;;;;3.93;1.47;;;;;;;;;;5010885;28;20564;-77
2022/04/09 12:25:44;;;;;;;2.50;1.23;;;;;;;;;;5011428;28;20049;-76
2022/04/09 12:28:28;;;;;;;1.20;1.10;;;;;;;;;;5012424;28;20030;-76
2022/04/09 12:30:56;;;;;;;3.03;1.30;;;;;;;;;;5012950;28;20100;-78
2022/04/09 12:33:23;;;;;;;6.87;1.57;;;;;;;;;;5013031;28;20042;-78
2022/04/09 12:35:49;;;;;;;4.67;1.43;;;;;;;;;;5012592;28;20492;-76
2022/04/09 12:38:30;;;;;;;3.50;1.33;;;;;;;;;;5012479;28;20026;-76
2022/04/09 12:41:01;;;;;;;2.97;1.10;;;;;;;;;;5011171;28;20139;-77
2022/04/09 12:43:35;;;;;;;;;;;;;;;;;;5014450;28;20045;-78
2022/04/09 12:46:03;;;;;;;4.50;1.53;;;;;;;;;;5029320;28;19997;-77
2022/04/09 12:48:45;;;;;;;1.37;1.10;;;;;;;;;;5011774;28;20022;-77
2022/04/09 12:51:13;;;;;;;2.00;1.50;;;;;;;;;;5012801;28;20026;-76
2022/04/09 12:53:48;;;;;;;3.30;1.43;;;;;;;;;;5014131;28;20433;-77
2022/04/09 12:56:15;;;;;;;5.80;3.13;;;;;;;;;;5011654;28;20165;-77
2022/04/09 12:58:41;;;;;;;1.13;1.03;;;;;;;;;;5012791;28;20033;-76
2022/04/09 13:01:09;;;;;;;5.00;1.53;;;;;;;;;;5015113;28;20061;-76
2022/04/09 13:03:36;;;;;;;4.40;1.70;;;;;;;;;;5016730;28;20022;-77
2022/04/09 13:06:03;;;;;;;1.77;1.27;;;;;;;;;;5016879;28;20049;-79
2022/04/09 13:08:28;;;;;;;1.40;1.10;;;;;;;;;;5019436;28;20114;-76
2022/04/09 13:10:54;;;;;;;1.33;1.07;;;;;;;;;;5014550;28;20025;-76
2022/04/09 13:13:20;;;;;;;2.07;1.13;;;;;;;;;;4998622;28;20485;-77
2022/04/09 13:15:47;;;;;;;2.33;1.23;;;;;;;;;;5016914;28;20092;-78
2022/04/09 13:18:12;;;;;;;1.87;1.30;;;;;;;;;;5015072;28;20043;-77
2022/04/09 13:20:38;;;;;;;1.77;1.33;;;;;;;;;;5013806;28;20060;-77
2022/04/09 13:23:07;;;;;;;4.00;1.57;;;;;;;;;;5031914;28;20023;-77
2022/04/09 13:25:34;;;;;;;1.20;1.10;;;;;;;;;;5029361;28;20025;-78
2022/04/09 13:28:02;;;;;;;1.83;1.23;;;;;;;;;;5028226;28;20068;-78
2022/04/09 13:30:28;;;;;;;4.80;1.50;;;;;;;;;;5027595;28;20060;-78
2022/04/09 13:32:54;;;;;;;1.87;1.07;;;;;;;;;;5026705;28;20156;-76
2022/04/09 13:35:23;;;;;;;1.30;1.20;;;;;;;;;;5026908;28;20033;-77
2022/04/09 13:37:50;;;;;;;1.50;1.40;;;;;;;;;;5010931;28;20116;-77
2022/04/09 13:40:16;;;;;;;1.40;1.30;;;;;;;;;;5012935;28;20311;-76
2022/04/09 13:42:41;;;;;;;2.47;1.43;;;;;;;;;;5026742;28;20048;-76
2022/04/09 13:45:11;;;;;;;3.10;1.87;;;;;;;;;;5012292;28;20201;-77
2022/04/09 13:47:43;;;;;;;1.60;1.33;;;;;;;;;;5027603;28;20030;-77
2022/04/09 13:50:10;;;;;;;2.53;1.67;;;;;;;;;;5010962;28;20029;-78
2022/04/09 13:52:36;;;;;;;2.17;1.40;;;;;;;;;;5026699;28;20382;-78
2022/04/09 13:55:01;;;;;;;3.30;1.70;;;;;;;;;;5009714;28;20048;-77
2022/04/09 13:57:28;;;;;;;1.30;1.20;;;;;;;;;;5027046;28;20378;-77
2022/04/09 13:59:53;;;;;;;1.27;1.00;;;;;;;;;;5010549;28;20104;-74
2022/04/09 14:02:19;;;;;;;2.87;1.13;;;;;;;;;;5027924;28;20067;-77
2022/04/09 14:04:45;;;;;;;2.40;1.37;;;;;;;;;;5012901;28;20029;-79
2022/04/09 14:07:11;;;;;;;1.87;1.27;;;;;;;;;;5028014;28;20430;-78
2022/04/09 14:09:37;;;;;;;4.30;1.20;;;;;;;;;;5026579;28;20049;-79
2022/04/09 14:12:03;;;;;;;2.03;1.33;;;;;;;;;;5026500;28;20053;-77
2022/04/09 14:14:29;;;;;;;2.27;1.00;;;;;;;;;;5011286;28;20056;-78
2022/04/09 14:16:55;;;;;;;1.00;0.90;;;;;;;;;;5026135;28;20022;-77
2022/04/09 14:19:20;;;;;;;1.75;0.90;;;;;;;;;;4993256;28;20200;-78
2022/04/09 14:21:47;;;;;;;1.35;0.70;;;;;;;;;;5009788;28;20383;-78
2022/04/09 14:24:13;;;;;;;1.42;1.10;;;;;;;;;;5010075;28;20305;-78
2022/04/09 14:26:40;;;;;;;2.90;0.90;;;;;;;;;;4993987;28;20076;-78
2022/04/09 14:29:06;;;;;;;1.13;0.80;;;;;;;;;;5009176;28;20100;-76
2022/04/09 14:31:32;;;;;;;1.80;1.20;;;;;;;;;;5009201;28;20489;-77
2022/04/09 14:34:01;;;;;;;2.95;0.80;;;;;;;;;;5010245;28;20041;-77
2022/04/09 14:36:30;;;;;;;2.10;0.95;;;;;;;;;;5008533;28;20409;-76
2022/04/09 14:38:56;;;;;;;3.47;0.95;;;;;;;;;;5008997;28;20025;-75
2022/04/09 14:41:21;;;;;;;3.42;0.90;;;;;;;;;;5010198;28;20036;-75
2022/04/09 14:43:47;;;;;;;2.58;0.88;;;;;;;;;;5008716;28;20025;-77
2022/04/09 14:46:13;;;;;;;4.20;1.23;;;;;;;;;;5008435;28;20033;-76